Time;durP1;ratioP1;P1;durP2;ratioP2;P2;SDS_P1;SDS_P2;PMS_P1;PMS_P2;Temp;Humidity;BMP_temperature;BMP_pressure;BME280_temperature;BME280_humidity;BME280_pressure;Samples;Min_cycle;Max_cycle;Signal;HPM_P1;HPM_P2
2022/06/21 00:00:35;;;;;;;;;;;;;;;11.27;100.00;101749.50;2613408;36;19951;-59
2022/06/21 00:03:05;;;;;;;;;;;;;;;11.20;100.00;101749.13;2612828;36;20463;-58
2022/06/21 00:05:35;;;;;;;;;;;;;;;11.10;100.00;101742.72;2613921;36;20345;-57
2022/06/21 00:08:04;;;;;;;;;;;;;;;11.16;100.00;101753.03;2616342;36;19954;-56
2022/06/21 00:10:34;;;;;;;;;;;;;;;11.10;100.00;101748.13;2615101;36;19942;-59
2022/06/21 00:13:02;;;;;;;;;;;;;;;11.01;100.00;101746.97;2616819;36;19974;-57
2022/06/21 00:15:33;;;;;;;;;;;;;;;10.92;100.00;101744.97;2614689;36;19969;-57
2022/06/21 00:18:01;;;;;;;;;;;;;;;10.85;100.00;101743.72;2614114;36;19958;-56
2022/06/21 00:20:30;;;;;;;;;;;;;;;10.84;100.00;101742.88;2613308;36;19950;-56
2022/06/21 00:22:58;;;;;;;;;;;;;;;10.89;100.00;101742.50;2614300;36;20355;-56
2022/06/21 00:25:28;;;;;;;;;;;;;;;10.79;100.00;101742.38;2613330;36;20340;-60
2022/06/21 00:27:57;;;;;;;;;;;;;;;10.68;100.00;101736.94;2613745;36;19951;-56
2022/06/21 00:30:25;;;;;;;;;;;;;;;10.69;100.00;101734.13;2612566;36;19958;-58
2022/06/21 00:32:57;;;;;;;;;;;;;;;10.76;100.00;101739.91;2614040;36;20007;-58
2022/06/21 00:35:26;;;;;;;;;;;;;;;10.71;100.00;101742.06;2612787;36;20425;-57
2022/06/21 00:37:54;;;;;;;;;;;;;;;10.61;100.00;101738.34;2613899;36;20319;-54
2022/06/21 00:40:25;;;;;;;;;;;;;;;10.40;100.00;101730.91;2613825;36;20677;-56
2022/06/21 00:42:56;;;;;;;;;;;;;;;10.27;100.00;101722.00;2612677;36;20376;-58
2022/06/21 00:45:32;;;;;;;;;;;;;;;10.26;100.00;101731.91;2613430;36;20398;-58
2022/06/21 00:48:05;;;;;;;;;;;;;;;10.27;100.00;101722.00;2613748;31;19950;-55
2022/06/21 00:50:38;;;;;;;;;;;;;;;10.34;100.00;101717.91;2613606;36;19946;-57
2022/06/21 00:53:09;;;;;;;;;;;;;;;10.35;100.00;101719.63;2613537;36;19951;-57
2022/06/21 00:55:43;;;;;;;;;;;;;;;10.21;100.00;101722.44;2612995;36;19950;-56
2022/06/21 00:58:12;;;;;;;;;;;;;;;10.16;100.00;101734.41;2612651;31;20586;-59
2022/06/21 01:08:22;;;;;;;;;;;;;;;10.14;100.00;101714.84;2611896;36;20062;-56
2022/06/21 01:10:56;;;;;;;;;;;;;;;10.16;100.00;101720.94;2613559;54;19958;-56
2022/06/21 01:13:25;;;;;;;;;;;;;;;10.10;100.00;101710.63;2613655;36;20399;-54
2022/06/21 01:18:35;;;;;;;;;;;;;;;9.95;100.00;101717.13;2612629;36;20125;-57
2022/06/21 01:21:05;;;;;;;;;;;;;;;9.97;100.00;101715.19;2618477;36;20397;-57
2022/06/21 01:23:52;;;;;;;;;;;;;;;10.02;100.00;101722.94;2614073;36;20438;-57
2022/06/21 01:26:35;;;;;;;;;;;;;;;9.91;100.00;101710.25;2612880;31;19967;-57
2022/06/21 01:29:08;;;;;;;;;;;;;;;9.86;100.00;101697.13;2612926;36;19966;-58
2022/06/21 01:34:21;;;;;;;;;;;;;;;9.81;100.00;101693.94;2613434;36;19978;-57
2022/06/21 01:39:29;;;;;;;;;;;;;;;9.68;100.00;101699.31;2615486;36;19985;-56
2022/06/21 01:42:00;;;;;;;;;;;;;;;9.68;100.00;101703.84;2608659;36;19950;-54
2022/06/21 01:47:01;;;;;;;;;;;;;;;9.76;100.00;101713.09;2624565;36;20339;-56
2022/06/21 01:49:31;;;;;;;;;;;;;;;9.77;100.00;101714.78;2612633;36;20483;-58
2022/06/21 01:52:01;;;;;;;;;;;;;;;9.83;100.00;101713.50;2613820;36;19974;-58
2022/06/21 01:54:31;;;;;;;;;;;;;;;9.87;100.00;101708.75;2612800;31;19997;-57
2022/06/21 01:56:59;;;;;;;;;;;;;;;9.96;100.00;101700.03;2613948;36;19947;-53
2022/06/21 01:59:34;;;;;;;;;;;;;;;9.98;100.00;101701.63;2613561;36;19977;-56
2022/06/21 02:02:11;;;;;;;;;;;;;;;9.89;100.00;101706.81;2618938;36;19946;-56
2022/06/21 02:04:42;;;;;;;;;;;;;;;9.93;100.00;101690.34;2617568;36;19946;-57
2022/06/21 02:07:14;;;;;;;;;;;;;;;10.02;100.00;101696.03;2613323;39;20216;-58
2022/06/21 02:12:26;;;;;;;;;;;;;;;10.06;100.00;101690.31;2617079;36;19950;-59
2022/06/21 02:14:56;;;;;;;;;;;;;;;9.99;100.00;101686.34;2617654;36;20073;-57
2022/06/21 02:17:28;;;;;;;;;;;;;;;9.98;100.00;101680.13;2612442;36;19951;-57
2022/06/21 02:20:04;;;;;;;;;;;;;;;9.98;100.00;101684.63;2613498;36;19954;-56
2022/06/21 02:22:33;;;;;;;;;;;;;;;9.88;100.00;101675.50;2612829;31;19950;-55
2022/06/21 02:25:01;;;;;;;;;;;;;;;9.82;100.00;101675.00;2612765;36;19989;-58
2022/06/21 02:30:02;;;;;;;;;;;;;;;9.78;100.00;101668.13;2612862;36;19952;-57
2022/06/21 02:32:34;;;;;;;;;;;;;;;9.87;100.00;101666.59;2617280;36;19957;-57
2022/06/21 02:35:06;;;;;;;;;;;;;;;9.78;100.00;101676.19;2612530;36;19957;-56
2022/06/21 02:37:49;;;;;;;;;;;;;;;9.73;100.00;101672.97;2613545;36;19947;-57
2022/06/21 02:40:20;;;;;;;;;;;;;;;9.78;100.00;101662.75;2613060;36;19946;-57
2022/06/21 02:42:49;;;;;;;;;;;;;;;9.79;100.00;101664.47;2613819;36;20390;-58
2022/06/21 02:50:39;;;;;;;;;;;;;;;9.76;100.00;101686.19;2617423;36;19958;-59
2022/06/21 02:53:10;;;;;;;;;;;;;;;9.79;100.00;101699.41;2623635;36;20074;-55
2022/06/21 02:55:42;;;;;;;;;;;;;;;9.58;100.00;101701.78;2613391;54;19973;-55
2022/06/21 02:58:15;;;;;;;;;;;;;;;9.58;100.00;101696.41;2624043;36;19958;-55
2022/06/21 03:00:44;;;;;;;;;;;;;;;9.62;100.00;101692.53;2613377;36;19951;-57
2022/06/21 03:03:18;;;;;;;;;;;;;;;9.68;100.00;101693.09;2613821;36;19947;-58
2022/06/21 03:05:50;;;;;;;;;;;;;;;9.83;100.00;101697.34;2613161;36;19950;-56
2022/06/21 03:08:19;;;;;;;;;;;;;;;9.87;100.00;101696.16;2613559;36;20070;-54
2022/06/21 03:10:52;;;;;;;;;;;;;;;9.80;100.00;101687.72;2614893;36;19943;-55
2022/06/21 03:13:21;;;;;;;;;;;;;;;9.77;100.00;101682.53;2613618;36;19974;-55
2022/06/21 03:15:52;;;;;;;;;;;;;;;9.70;100.00;101683.97;2614192;54;19957;-57
2022/06/21 03:21:01;;;;;;;;;;;;;;;9.75;100.00;101686.31;2614203;54;20501;-56
2022/06/21 03:23:29;;;;;;;;;;;;;;;9.79;100.00;101691.34;2620456;31;20432;-55
2022/06/21 03:26:00;;;;;;;;;;;;;;;9.80;100.00;101684.13;2614433;36;19947;-57
2022/06/21 03:28:33;;;;;;;;;;;;;;;9.88;100.00;101683.56;2614298;36;20363;-58
2022/06/21 03:31:07;;;;;;;;;;;;;;;9.81;100.00;101685.88;2613267;47;19949;-57
2022/06/21 03:33:36;;;;;;;;;;;;;;;9.84;100.00;101679.41;2611505;36;19950;-57
2022/06/21 03:36:08;;;;;;;;;;;;;;;9.87;100.00;101681.88;2614029;36;19950;-55
2022/06/21 03:38:38;;;;;;;;;;;;;;;9.92;100.00;101677.00;2612957;36;19947;-57
2022/06/21 03:46:37;;;;;;;;;;;;;;;9.68;100.00;101683.19;2615767;39;20340;-57
2022/06/21 03:49:07;;;;;;;;;;;;;;;9.71;100.00;101682.97;2613769;36;19953;-56
2022/06/21 03:51:40;;;;;;;;;;;;;;;9.64;100.00;101674.50;2614301;36;19973;-57
2022/06/21 03:54:12;;;;;;;;;;;;;;;9.70;100.00;101681.28;2612988;36;19947;-59
2022/06/21 03:56:47;;;;;;;;;;;;;;;9.70;100.00;101675.91;2618005;36;19958;-58
2022/06/21 03:59:22;;;;;;;;;;;;;;;9.73;100.00;101670.28;2622588;36;19955;-56
2022/06/21 04:01:53;;;;;;;;;;;;;;;9.66;100.00;101669.00;2614313;36;19958;-57
2022/06/21 04:04:26;;;;;;;;;;;;;;;9.49;100.00;101662.13;2613055;36;19962;-58
2022/06/21 04:07:01;;;;;;;;;;;;;;;9.51;100.00;101664.72;2613810;36;20713;-57
2022/06/21 04:09:33;;;;;;;;;;;;;;;9.54;100.00;101654.63;2613927;36;19980;-55
2022/06/21 04:12:04;;;;;;;;;;;;;;;9.66;100.00;101655.56;2613898;36;19946;-57
2022/06/21 04:14:38;;;;;;;;;;;;;;;9.75;100.00;101654.91;2618403;36;20356;-54
2022/06/21 04:17:08;;;;;;;;;;;;;;;9.89;100.00;101658.41;2614692;36;20326;-56
2022/06/21 04:19:41;;;;;;;;;;;;;;;10.02;100.00;101659.22;2612153;36;19954;-55
2022/06/21 04:22:15;;;;;;;;;;;;;;;10.10;100.00;101662.22;2619493;31;20533;-54
2022/06/21 04:24:46;;;;;;;;;;;;;;;10.03;100.00;101660.94;2616208;36;19954;-56
2022/06/21 04:27:30;;;;;;;;;;;;;;;10.02;100.00;101663.75;2614830;39;20400;-56
2022/06/21 04:30:05;;;;;;;;;;;;;;;10.04;100.00;101661.81;2613010;36;19951;-58
2022/06/21 04:38:06;;;;;;;;;;;;;;;10.26;100.00;101642.22;2614395;36;19958;-55
2022/06/21 04:40:40;;;;;;;;;;;;;;;10.51;100.00;101647.53;2615398;36;19963;-55
2022/06/21 04:43:12;;;;;;;;;;;;;;;10.51;100.00;101643.97;2614227;36;20387;-56
2022/06/21 04:45:43;;;;;;;;;;;;;;;10.46;100.00;101644.31;2611540;36;19946;-53
2022/06/21 04:48:19;;;;;;;;;;;;;;;10.51;100.00;101649.34;2613864;36;19946;-59
2022/06/21 04:50:51;;;;;;;;;;;;;;;10.62;100.00;101643.16;2619127;36;19953;-57
2022/06/21 04:56:00;;;;;;;;;;;;;;;10.89;100.00;101636.63;2613679;36;20408;-58
2022/06/21 04:58:30;;;;;;;;;;;;;;;10.96;100.00;101643.25;2619855;31;20435;-54
2022/06/21 05:01:29;;;;;;;;;;;;;;;11.02;100.00;101643.63;2617489;36;19977;-56
2022/06/21 05:03:49;;;;;;;;;;;;;;;11.22;100.00;101647.44;2613158;36;20543;-57
2022/06/21 05:06:17;;;;;;;;;;;;;;;11.22;100.00;101650.16;2614254;36;20380;-55
2022/06/21 05:08:47;;;;;;;;;;;;;;;11.20;100.00;101662.03;2613683;31;19946;-57
2022/06/21 05:11:17;;;;;;;;;;;;;;;11.37;100.00;101663.41;2613343;36;19958;-59
2022/06/21 05:13:48;;;;;;;;;;;;;;;11.68;100.00;101671.75;2613445;36;19986;-56
2022/06/21 05:16:20;;;;;;;;;;;;;;;11.66;100.00;101673.69;2613053;36;19973;-55
2022/06/21 05:18:58;;;;;;;;;;;;;;;11.67;100.00;101668.16;2612125;36;19959;-59
2022/06/21 05:21:31;;;;;;;;;;;;;;;11.69;100.00;101670.72;2613895;31;20436;-60
2022/06/21 05:23:59;;;;;;;;;;;;;;;11.77;100.00;101664.75;2614000;36;19954;-56
2022/06/21 05:26:33;;;;;;;;;;;;;;;12.01;100.00;101661.91;2613646;36;19954;-56
2022/06/21 05:29:04;;;;;;;;;;;;;;;11.96;100.00;101656.03;2612530;36;19950;-58
2022/06/21 05:31:37;;;;;;;;;;;;;;;11.95;100.00;101651.63;2597634;36;19946;-57
2022/06/21 05:34:08;;;;;;;;;;;;;;;12.14;100.00;101645.56;2605983;36;20562;-58
2022/06/21 05:36:40;;;;;;;;;;;;;;;12.43;100.00;101635.88;2614046;36;19951;-59
2022/06/21 05:39:10;;;;;;;;;;;;;;;12.46;100.00;101625.84;2613183;36;19950;-56
2022/06/21 05:41:43;;;;;;;;;;;;;;;12.58;100.00;101625.63;2612877;36;19946;-57
2022/06/21 05:44:13;;;;;;;;;;;;;;;12.78;100.00;101625.78;2613220;36;19946;-58
2022/06/21 05:46:43;;;;;;;;;;;;;;;12.82;100.00;101619.09;2613007;36;19951;-55
2022/06/21 05:49:17;;;;;;;;;;;;;;;13.10;100.00;101614.00;2612798;36;19974;-58
2022/06/21 05:51:46;;;;;;;;;;;;;;;13.01;100.00;101618.38;2612635;36;21441;-57
2022/06/21 05:54:19;;;;;;;;;;;;;;;13.20;100.00;101614.91;2613798;36;20015;-56
2022/06/21 05:56:51;;;;;;;;;;;;;;;13.28;100.00;101615.13;2619066;36;19981;-57
2022/06/21 05:59:25;;;;;;;;;;;;;;;13.48;100.00;101615.22;2613566;36;21190;31
2022/06/21 06:01:56;;;;;;;;;;;;;;;13.46;100.00;101607.25;2612186;36;19970;-56
2022/06/21 06:04:27;;;;;;;;;;;;;;;13.54;100.00;101605.72;2612000;36;19974;-58
2022/06/21 06:06:57;;;;;;;;;;;;;;;13.47;100.00;101611.66;2611977;36;19961;-58
2022/06/21 06:09:27;;;;;;;;;;;;;;;13.60;100.00;101622.25;2611122;36;19955;-57
2022/06/21 06:12:01;;;;;;;;;;;;;;;13.58;100.00;101635.03;2611900;36;19974;-59
2022/06/21 06:17:14;;;;;;;;;;;;;;;13.76;100.00;101619.00;2612857;31;20037;-60
2022/06/21 06:19:46;;;;;;;;;;;;;;;13.93;100.00;101630.19;2609963;31;20417;-57
2022/06/21 06:22:20;;;;;;;;;;;;;;;14.21;100.00;101620.38;2612325;36;19954;-58
2022/06/21 06:24:52;;;;;;;;;;;;;;;14.51;100.00;101616.66;2612831;36;19950;-59
2022/06/21 06:30:06;;;;;;;;;;;;;;;15.20;100.00;101628.25;2611258;36;19953;-58
2022/06/21 06:37:36;;;;;;;;;;;;;;;16.88;100.00;101596.31;2624147;36;19950;-58
2022/06/21 06:42:47;;;;;;;;;;;;;;;17.52;100.00;101602.28;2606884;47;19955;-58
2022/06/21 06:48:03;;;;;;;;;;;;;;;17.51;100.00;101604.13;2616432;36;19957;-57
2022/06/21 06:55:26;;;;;;;;;;;;;;;16.81;100.00;101615.97;2612346;54;19954;-58
2022/06/21 06:57:56;;;;;;;;;;;;;;;16.77;100.00;101611.84;2612408;36;19954;-61
2022/06/21 07:00:25;;;;;;;;;;;;;;;17.50;100.00;101616.06;2612337;36;19954;-61
2022/06/21 07:13:10;;;;;;;;;;;;;;;17.35;100.00;101636.72;2610892;36;19954;-58
2022/06/21 07:18:05;;;;;;;;;;;;;;;17.55;100.00;101641.91;2612216;36;19934;-58
2022/06/21 07:30:42;;;;;;;;;;;;;;;18.20;100.00;101644.88;2611001;36;19977;-60
2022/06/21 07:38:13;;;;;;;;;;;;;;;17.36;100.00;101653.88;2611039;36;19950;-58
2022/06/21 07:50:45;;;;;;;;;;;;;;;18.42;100.00;101637.09;2612520;36;19951;-60
2022/06/21 07:58:13;;;;;;;;;;;;;;;18.80;100.00;101636.56;2612837;36;20066;-58
2022/06/21 08:21:04;;;;;;;;;;;;;;;20.09;100.00;101627.31;2613138;36;19958;-59
2022/06/21 08:23:36;;;;;;;;;;;;;;;19.77;100.00;101620.13;2615934;36;19970;-58
2022/06/21 08:33:35;;;;;;;;;;;;;;;19.73;100.00;101619.66;2611477;36;19950;-59
2022/06/21 08:36:13;;;;;;;;;;;;;;;20.01;100.00;101615.59;2613142;36;19961;-57
2022/06/21 08:38:46;;;;;;;;;;;;;;;20.19;100.00;101618.91;2613774;31;20423;-57
2022/06/21 08:59:09;;;;;;;;;;;;;;;19.30;100.00;101601.91;2612699;36;19962;-58
2022/06/21 09:01:56;;;;;;;;;;;;;;;19.94;100.00;101599.09;2612615;36;20045;-59
2022/06/21 09:28:02;;;;;;;;;;;;;;;21.33;99.67;101571.50;2612099;36;19958;-59
2022/06/21 09:30:34;;;;;;;;;;;;;;;20.40;100.00;101559.97;2611103;36;19961;-58
2022/06/21 09:40:46;;;;;;;;;;;;;;;20.73;97.06;101560.56;2612012;36;20429;-60
2022/06/21 09:51:02;;;;;;;;;;;;;;;21.56;97.29;101559.63;2612755;54;20606;-59
2022/06/21 10:01:06;;;;;;;;;;;;;;;22.04;80.51;101563.53;2612389;54;19951;-59
2022/06/21 10:03:38;;;;;;;;;;;;;;;22.26;75.38;101569.03;2610839;36;20381;-58
2022/06/21 10:06:10;;;;;;;;;;;;;;;21.63;87.23;101561.41;2613991;36;19950;-61
2022/06/21 10:23:44;;;;;;;;;;;;;;;22.00;75.45;101529.34;2612311;54;20037;-58
2022/06/21 10:59:24;;;;;;;;;;;;;;;21.40;76.70;101494.94;2608208;36;19950;-58
2022/06/21 11:01:57;;;;;;;;;;;;;;;22.05;75.67;101485.75;2611733;36;19981;-60
2022/06/21 11:09:39;;;;;;;;;;;;;;;22.11;74.93;101491.47;2612492;54;19945;-57
2022/06/21 11:20:03;;;;;;;;;;;;;;;21.83;72.15;101490.41;2612828;54;19946;-59
2022/06/21 11:22:42;;;;;;;;;;;;;;;22.95;68.41;101496.09;2612497;36;19946;-61
2022/06/21 11:32:47;;;;;;;;;;;;;;;23.12;70.38;101493.91;2613242;31;20476;-59
2022/06/21 11:35:22;;;;;;;;;;;;;;;23.67;66.08;101496.63;2611842;36;20685;-59
2022/06/21 11:40:47;;;;;;;;;;;;;;;23.99;61.56;101491.44;2616483;36;19961;-58
2022/06/21 11:43:27;;;;;;;;;;;;;;;24.42;61.49;101491.00;2614370;39;20517;-58
2022/06/21 11:45:59;;;;;;;;;;;;;;;24.46;56.87;101481.28;2614177;54;19958;-58
2022/06/21 11:48:40;;;;;;;;;;;;;;;25.12;56.24;101476.69;2631057;36;19938;-61
2022/06/21 11:51:21;;;;;;;;;;;;;;;25.29;56.56;101481.69;2614498;36;20399;-59
2022/06/21 11:53:59;;;;;;;;;;;;;;;24.14;57.86;101481.09;2612602;36;19978;-60
2022/06/21 11:59:06;;;;;;;;;;;;;;;25.06;54.98;101482.22;2614754;54;20100;-58
2022/06/21 12:17:23;;;;;;;;;;;;;;;24.08;55.81;101470.09;2613436;36;20014;-60
2022/06/21 12:27:26;;;;;;;;;;;;;;;25.06;53.83;101469.31;2613188;36;19985;-58
2022/06/21 12:35:09;;;;;;;;;;;;;;;26.34;48.95;101450.03;2613660;36;20437;-59
2022/06/21 12:37:50;;;;;;;;;;;;;;;26.48;49.36;101451.59;2613769;36;20326;-59
2022/06/21 12:45:32;;;;;;;;;;;;;;;25.48;55.19;101442.19;2612180;36;20511;-58
2022/06/21 12:48:07;;;;;;;;;;;;;;;25.89;51.39;101440.84;2612240;36;19951;-57
2022/06/21 12:50:51;;;;;;;;;;;;;;;25.94;50.16;101433.81;2631950;36;19978;-59
2022/06/21 12:56:00;;;;;;;;;;;;;;;25.52;51.61;101446.22;2612685;36;19970;-57
2022/06/21 13:01:14;;;;;;;;;;;;;;;25.57;51.60;101428.16;2632202;36;19958;-58
2022/06/21 13:08:56;;;;;;;;;;;;;;;25.44;52.96;101415.31;2612751;36;20520;-60
2022/06/21 13:14:22;;;;;;;;;;;;;;;25.35;53.18;101414.72;2614097;54;20050;-56
2022/06/21 13:17:08;;;;;;;;;;;;;;;25.23;51.26;101414.53;2613325;54;19946;-60
2022/06/21 13:25:06;;;;;;;;;;;;;;;24.65;53.02;101412.69;2613587;54;19958;-60
2022/06/21 13:27:47;;;;;;;;;;;;;;;24.59;52.20;101416.31;2614092;54;19958;-59
2022/06/21 13:30:31;;;;;;;;;;;;;;;24.38;53.79;101403.63;2615401;36;19946;-58
2022/06/21 13:46:15;;;;;;;;;;;;;;;25.04;54.86;101391.56;2610447;54;19958;-58
2022/06/21 13:51:32;;;;;;;;;;;;;;;23.52;58.22;101383.31;2612940;54;19998;-59
2022/06/21 13:56:52;;;;;;;;;;;;;;;24.16;56.94;101378.25;2611509;36;20552;-59
2022/06/21 14:14:47;;;;;;;;;;;;;;;24.27;57.20;101378.44;2612008;36;20163;-58
2022/06/21 14:17:22;;;;;;;;;;;;;;;24.08;59.13;101382.91;2610361;36;19946;-58
2022/06/21 14:22:35;;;;;;;;;;;;;;;24.37;56.34;101385.44;2630619;36;19947;-58
2022/06/21 14:27:47;;;;;;;;;;;;;;;24.77;56.29;101380.66;2612880;54;19953;-57
2022/06/21 14:38:41;;;;;;;;;;;;;;;24.78;54.87;101376.84;2612235;36;19978;-60
2022/06/21 14:41:30;;;;;;;;;;;;;;;24.33;54.87;101373.16;2612447;36;20475;-60
2022/06/21 14:46:41;;;;;;;;;;;;;;;24.86;56.07;101372.16;2612073;36;19974;-59
2022/06/21 14:49:15;;;;;;;;;;;;;;;25.32;54.97;101365.56;2613379;54;19962;-58
2022/06/21 14:54:37;;;;;;;;;;;;;;;25.35;54.11;101362.38;2610989;36;19954;-58
2022/06/21 15:02:19;;;;;;;;;;;;;;;24.77;56.95;101355.06;2613101;54;19947;-58
2022/06/21 15:04:49;;;;;;;;;;;;;;;24.66;57.56;101362.06;2613729;31;19958;-60
2022/06/21 15:15:00;;;;;;;;;;;;;;;25.24;54.93;101352.06;2612846;54;20525;-58
2022/06/21 15:23:03;;;;;;;;;;;;;;;24.17;59.51;101339.53;2613993;39;20355;-59
2022/06/21 15:28:09;;;;;;;;;;;;;;;24.11;63.14;101343.16;2613449;54;19954;-58
2022/06/21 15:33:28;;;;;;;;;;;;;;;23.75;67.09;101342.53;2613411;39;20488;-58
2022/06/21 15:36:17;;;;;;;;;;;;;;;24.02;64.56;101342.53;2611623;36;19973;-61
2022/06/21 15:38:53;;;;;;;;;;;;;;;24.07;64.23;101341.88;2612063;36;19947;-58
2022/06/21 15:46:32;;;;;;;;;;;;;;;23.99;71.84;101331.97;2613264;36;19973;-58
2022/06/21 15:51:40;;;;;;;;;;;;;;;23.68;74.16;101338.94;2617277;36;19974;-58
2022/06/21 15:54:20;;;;;;;;;;;;;;;23.82;72.83;101330.69;2617490;31;19951;-59
2022/06/21 15:56:57;;;;;;;;;;;;;;;22.90;84.25;101337.53;2613891;54;20433;-59
2022/06/21 15:59:33;;;;;;;;;;;;;;;23.07;91.60;101324.28;2613920;36;20407;-59
2022/06/21 16:10:08;;;;;;;;;;;;;;;22.55;98.28;101334.00;2630336;36;19989;-60
2022/06/21 16:15:26;;;;;;;;;;;;;;;22.38;100.00;101339.84;2616283;36;19969;-58
2022/06/21 16:26:12;;;;;;;;;;;;;;;22.21;94.46;101338.44;2612885;36;20514;-58
2022/06/21 16:34:15;;;;;;;;;;;;;;;21.84;87.88;101344.09;2617544;36;20448;-59
2022/06/21 16:39:13;;;;;;;;;;;;;;;22.08;92.12;101341.94;2613606;39;20352;-59
2022/06/21 16:44:26;;;;;;;;;;;;;;;21.42;91.79;101340.34;2613860;36;20467;-58
2022/06/21 16:46:57;;;;;;;;;;;;;;;21.82;96.46;101332.50;2613798;36;19947;-57
2022/06/21 16:49:29;;;;;;;;;;;;;;;22.15;89.27;101333.78;2613048;36;19954;-58
2022/06/21 16:54:38;;;;;;;;;;;;;;;22.22;84.94;101326.44;2612155;36;19970;-60
2022/06/21 16:57:07;;;;;;;;;;;;;;;22.09;87.94;101323.63;2611673;36;19994;-59
2022/06/21 16:59:46;;;;;;;;;;;;;;;21.60;83.42;101331.69;2613439;36;19955;-61
2022/06/21 17:02:30;;;;;;;;;;;;;;;21.57;89.24;101321.13;2613143;36;19958;-59
2022/06/21 17:05:11;;;;;;;;;;;;;;;21.56;90.59;101313.94;2612178;36;20041;-58
2022/06/21 17:07:39;;;;;;;;;;;;;;;21.59;90.76;101319.03;2612735;36;19951;-58
2022/06/21 17:10:09;;;;;;;;;;;;;;;21.88;88.19;101322.63;2613200;36;20324;-57
2022/06/21 17:12:38;;;;;;;;;;;;;;;21.84;84.46;101321.34;2612421;36;20464;-57
2022/06/21 17:15:11;;;;;;;;;;;;;;;21.82;81.35;101323.41;2613192;36;20095;-58
2022/06/21 17:17:54;;;;;;;;;;;;;;;21.60;78.15;101326.22;2612300;36;19950;-57
2022/06/21 17:20:36;;;;;;;;;;;;;;;21.35;83.67;101323.84;2611998;36;19951;-58
2022/06/21 17:23:09;;;;;;;;;;;;;;;21.23;91.58;101325.44;2612344;36;19950;-59
2022/06/21 17:25:40;;;;;;;;;;;;;;;21.34;88.11;101318.56;2613566;36;19950;-58
2022/06/21 17:33:52;;;;;;;;;;;;;;;21.32;85.86;101318.78;2651357;36;19973;-57
2022/06/21 17:36:26;;;;;;;;;;;;;;;20.96;89.82;101319.66;2612642;36;19947;-57
2022/06/21 17:38:58;;;;;;;;;;;;;;;21.00;86.74;101315.50;2607157;36;19977;-57
2022/06/21 17:44:02;;;;;;;;;;;;;;;20.97;93.64;101310.41;2612523;36;19969;-61
2022/06/21 17:46:35;;;;;;;;;;;;;;;21.07;92.59;101310.09;2612531;36;19973;-58
2022/06/21 17:49:05;;;;;;;;;;;;;;;21.13;96.73;101308.47;2610912;36;19957;-59
2022/06/21 18:04:16;;;;;;;;;;;;;;;20.69;100.00;101317.69;2613084;36;20458;-58
2022/06/21 18:09:16;;;;;;;;;;;;;;;20.47;100.00;101323.03;2611880;46;20463;-59
2022/06/21 18:19:33;;;;;;;;;;;;;;;20.44;100.00;101323.44;2613663;54;19942;-58
2022/06/21 18:39:53;;;;;;;;;;;;;;;19.98;100.00;101335.41;2606368;36;20407;-58
2022/06/21 19:12:51;;;;;;;;;;;;;;;19.61;100.00;101358.94;2613281;54;19953;-58
2022/06/21 19:15:30;;;;;;;;;;;;;;;19.36;100.00;101352.78;2613204;36;20337;-58
2022/06/21 19:18:12;;;;;;;;;;;;;;;19.37;100.00;101357.22;2612182;54;19974;-58
2022/06/21 19:20:49;;;;;;;;;;;;;;;19.29;100.00;101357.28;2618988;36;19954;-59
2022/06/21 19:23:46;;;;;;;;;;;;;;;19.48;100.00;101359.53;2616746;36;20487;-59
2022/06/21 19:26:26;;;;;;;;;;;;;;;19.47;100.00;101363.28;2611836;31;20009;-58
2022/06/21 19:29:08;;;;;;;;;;;;;;;19.22;100.00;101360.75;2611435;54;20457;-58
2022/06/21 19:31:52;;;;;;;;;;;;;;;19.08;100.00;101358.81;2612609;39;20344;-59
2022/06/21 19:35:00;;;;;;;;;;;;;;;19.20;100.00;101356.50;2610875;36;20412;31
2022/06/21 19:40:31;;;;;;;;;;;;;;;18.80;100.00;101367.44;2620357;36;19946;-59
2022/06/21 19:45:52;;;;;;;;;;;;;;;18.77;100.00;101381.44;2615272;36;19950;-58
2022/06/21 19:48:23;;;;;;;;;;;;;;;18.95;100.00;101389.41;2618318;36;19955;-59
2022/06/21 19:51:07;;;;;;;;;;;;;;;19.06;100.00;101388.13;2613980;54;19950;-58
2022/06/21 19:53:48;;;;;;;;;;;;;;;18.88;100.00;101397.44;2612691;54;19951;-59
2022/06/21 19:56:38;;;;;;;;;;;;;;;18.80;100.00;101397.44;2621659;36;20726;-58
2022/06/21 19:59:11;;;;;;;;;;;;;;;18.85;100.00;101402.38;2613682;36;19950;-56
2022/06/21 20:01:45;;;;;;;;;;;;;;;18.68;100.00;101401.56;2614091;36;19950;-57
2022/06/21 20:04:34;;;;;;;;;;;;;;;18.63;100.00;101406.72;2614422;32;19954;-57
2022/06/21 20:09:48;;;;;;;;;;;;;;;18.67;100.00;101410.81;2613793;36;20404;-57
2022/06/21 20:15:06;;;;;;;;;;;;;;;18.42;100.00;101413.59;2614469;36;20451;-61
2022/06/21 20:17:39;;;;;;;;;;;;;;;18.37;100.00;101421.44;2622120;31;19954;-57
2022/06/21 20:20:14;;;;;;;;;;;;;;;18.32;100.00;101416.50;2613180;31;19955;-58
2022/06/21 20:22:44;;;;;;;;;;;;;;;18.30;100.00;101425.88;2613290;36;19959;-59
2022/06/21 20:25:21;;;;;;;;;;;;;;;18.14;100.00;101427.63;2613901;36;19946;-57
2022/06/21 20:30:54;;;;;;;;;;;;;;;18.18;100.00;101418.06;2613803;36;20333;-60
2022/06/21 20:33:24;;;;;;;;;;;;;;;18.21;100.00;101415.00;2613987;31;19981;-58
2022/06/21 20:35:56;;;;;;;;;;;;;;;18.26;100.00;101408.19;2614507;31;20001;-61
2022/06/21 20:38:26;;;;;;;;;;;;;;;18.20;100.00;101407.00;2613270;31;19951;-56
2022/06/21 20:40:56;;;;;;;;;;;;;;;17.98;100.00;101411.28;2612944;31;19950;-58
2022/06/21 20:43:29;;;;;;;;;;;;;;;18.02;100.00;101401.72;2605219;36;19951;-58
2022/06/21 20:45:59;;;;;;;;;;;;;;;18.07;100.00;101407.53;2613689;36;19954;-57
2022/06/21 20:51:12;;;;;;;;;;;;;;;18.02;100.00;101404.44;2614509;39;20656;-58
2022/06/21 20:53:40;;;;;;;;;;;;;;;17.92;100.00;101406.50;2614618;36;19954;-58
2022/06/21 20:56:14;;;;;;;;;;;;;;;17.88;100.00;101399.69;2614392;36;20335;-58
2022/06/21 20:58:47;;;;;;;;;;;;;;;17.83;100.00;101397.47;2615266;36;19954;-58
2022/06/21 21:03:48;;;;;;;;;;;;;;;17.77;100.00;101409.03;2613008;54;19957;-58
2022/06/21 21:06:19;;;;;;;;;;;;;;;17.75;100.00;101395.59;2614704;31;19955;-58
2022/06/21 21:08:49;;;;;;;;;;;;;;;17.61;100.00;101393.56;2614160;36;19946;-59
2022/06/21 21:13:58;;;;;;;;;;;;;;;17.65;100.00;101400.34;2614657;36;20042;-56
2022/06/21 21:16:34;;;;;;;;;;;;;;;17.59;100.00;101395.59;2614880;36;20038;31
2022/06/21 21:19:07;;;;;;;;;;;;;;;17.52;100.00;101390.84;2614400;54;20433;-58
2022/06/21 21:24:32;;;;;;;;;;;;;;;17.61;100.00;101399.00;2618054;36;19947;-56
2022/06/21 21:29:49;;;;;;;;;;;;;;;17.38;100.00;101399.66;2651846;36;20389;-55
2022/06/21 21:32:36;;;;;;;;;;;;;;;17.31;100.00;101395.91;2615227;31;20348;-57
2022/06/21 21:35:08;;;;;;;;;;;;;;;17.34;100.00;101396.44;2614687;36;19981;-58
2022/06/21 21:37:42;;;;;;;;;;;;;;;17.38;100.00;101396.94;2614317;54;20620;-57
2022/06/21 21:40:16;;;;;;;;;;;;;;;17.27;100.00;101397.25;2614685;36;20394;-58
2022/06/21 21:48:00;;;;;;;;;;;;;;;17.07;100.00;101396.72;2612448;39;20399;-60
2022/06/21 21:50:33;;;;;;;;;;;;;;;16.99;100.00;101394.81;2615673;36;19951;-55
2022/06/21 21:53:02;;;;;;;;;;;;;;;17.04;100.00;101383.44;2614845;36;19947;-56
2022/06/21 21:55:30;;;;;;;;;;;;;;;17.04;100.00;101384.28;2614976;36;19958;-55
2022/06/21 22:00:44;;;;;;;;;;;;;;;16.91;100.00;101386.63;2617382;36;20507;-58
2022/06/21 22:03:26;;;;;;;;;;;;;;;16.84;100.00;101399.13;2609697;36;19950;-56
2022/06/21 22:05:58;;;;;;;;;;;;;;;16.85;100.00;101387.25;2614949;36;19950;-60
2022/06/21 22:08:29;;;;;;;;;;;;;;;16.87;100.00;101383.41;2616339;36;20364;-55
2022/06/21 22:11:01;;;;;;;;;;;;;;;16.79;100.00;101378.72;2615349;36;19946;-58
2022/06/21 22:13:31;;;;;;;;;;;;;;;16.67;100.00;101382.78;2617790;36;19954;-58
2022/06/21 22:16:04;;;;;;;;;;;;;;;16.67;100.00;101382.78;2614678;36;19946;-58
2022/06/21 22:18:38;;;;;;;;;;;;;;;16.68;100.00;101376.31;2614858;31;19947;-59